ダルエスサラーム の空港の天気 - METARとTAF

ジュリウス・ニエレレ国際空港(ダルエスサラーム) ( HTDA / DAR ) - タンザニア ダルエスサラーム
飛行場実況気象(Metar)
観測時間01/23 06:00 EAT (01/23 03:00 UTC)
風向・風速北 3m/s
視程10km以上
天気現象
全天の4割程度の雲 雲底高度 430m
気温26℃
湿度84%
気圧1011hPa
METARHTDA 230300Z 36005KT 9999 SCT014 26/23 Q1011 NOSIG
過去の天気等 Google飛行場航空写真 Wunderground天気予報

過去48時間のMETAR

飛行場予報(TAF)
発表時間: 1/23 02:00 EAT (1/22 23:00 UTC)
予報対象時間: 23日3時 EAT ~ 24日9時 EAT
風向・風速北 5m/s
視程10km以上
全天の4割程度の雲 雲底高度 580m
23日6時 EAT ~ 23日9時 EAT に徐々に
全天の4割程度の雲 雲底高度 550m
全天の8割程度の雲 雲底高度 2,440m
23日19時 EAT ~ 23日21時 EAT に徐々に
風向・風速北北東 8m/s
全天の8割程度の雲 雲底高度 700m
TAF HTDA 222300Z 2300/2406 35010KT 9999 SCT019
BECMG 2303/2306 SCT018 BKN080
BECMG 2316/2318 02015KT BKN023